sensor_id;sensor_type;location;lat;lon;timestamp;temperature;humidity
22450;DHT22;11392;57.390;-2.468;2022-07-29T00:01:03;14.60;99.90
22450;DHT22;11392;57.390;-2.468;2022-07-29T00:03:30;14.60;99.90
22450;DHT22;11392;57.390;-2.468;2022-07-29T00:05:57;14.50;99.90
22450;DHT22;11392;57.390;-2.468;2022-07-29T00:08:26;14.50;99.90
22450;DHT22;11392;57.390;-2.468;2022-07-29T00:10:53;14.50;99.90
22450;DHT22;11392;57.390;-2.468;2022-07-29T00:13:20;14.50;99.90
22450;DHT22;11392;57.390;-2.468;2022-07-29T00:15:58;14.50;99.90
22450;DHT22;11392;57.390;-2.468;2022-07-29T00:18:31;14.60;99.90
22450;DHT22;11392;57.390;-2.468;2022-07-29T00:20:58;14.60;99.90
22450;DHT22;11392;57.390;-2.468;2022-07-29T00:23:25;14.60;99.90
22450;DHT22;11392;57.390;-2.468;2022-07-29T00:25:52;14.60;99.90
22450;DHT22;11392;57.390;-2.468;2022-07-29T00:28:19;14.60;99.90
22450;DHT22;11392;57.390;-2.468;2022-07-29T00:30:46;14.60;99.90
22450;DHT22;11392;57.390;-2.468;2022-07-29T00:33:13;14.60;99.90
22450;DHT22;11392;57.390;-2.468;2022-07-29T00:35:40;14.70;99.90
22450;DHT22;11392;57.390;-2.468;2022-07-29T00:38:16;14.70;99.90
22450;DHT22;11392;57.390;-2.468;2022-07-29T00:40:44;14.70;99.90
22450;DHT22;11392;57.390;-2.468;2022-07-29T00:43:12;14.70;99.90
22450;DHT22;11392;57.390;-2.468;2022-07-29T00:45:41;14.70;99.90
22450;DHT22;11392;57.390;-2.468;2022-07-29T00:48:08;14.70;99.90
22450;DHT22;11392;57.390;-2.468;2022-07-29T00:50:36;14.70;99.90
22450;DHT22;11392;57.390;-2.468;2022-07-29T00:53:05;14.70;99.90
22450;DHT22;11392;57.390;-2.468;2022-07-29T00:55:33;14.70;99.90
22450;DHT22;11392;57.390;-2.468;2022-07-29T00:58:00;14.70;99.90
22450;DHT22;11392;57.390;-2.468;2022-07-29T01:00:28;14.70;99.90
22450;DHT22;11392;57.390;-2.468;2022-07-29T01:02:56;14.70;99.90
22450;DHT22;11392;57.390;-2.468;2022-07-29T01:05:24;14.70;99.90
22450;DHT22;11392;57.390;-2.468;2022-07-29T01:08:14;14.60;99.90
22450;DHT22;11392;57.390;-2.468;2022-07-29T01:10:44;14.60;99.90
22450;DHT22;11392;57.390;-2.468;2022-07-29T01:13:13;14.50;99.90
22450;DHT22;11392;57.390;-2.468;2022-07-29T01:15:49;14.50;99.90
22450;DHT22;11392;57.390;-2.468;2022-07-29T01:18:28;14.50;99.90
22450;DHT22;11392;57.390;-2.468;2022-07-29T01:24:19;14.50;99.90
22450;DHT22;11392;57.390;-2.468;2022-07-29T01:27:11;14.50;99.90
22450;DHT22;11392;57.390;-2.468;2022-07-29T01:29:53;14.50;99.90
22450;DHT22;11392;57.390;-2.468;2022-07-29T01:32:26;14.50;99.90
22450;DHT22;11392;57.390;-2.468;2022-07-29T01:37:48;14.30;99.90
22450;DHT22;11392;57.390;-2.468;2022-07-29T01:40:31;14.20;99.90
22450;DHT22;11392;57.390;-2.468;2022-07-29T01:43:03;14.20;99.90
22450;DHT22;11392;57.390;-2.468;2022-07-29T01:45:45;14.20;99.90
22450;DHT22;11392;57.390;-2.468;2022-07-29T01:48:20;14.10;99.90
22450;DHT22;11392;57.390;-2.468;2022-07-29T01:51:02;14.10;99.90
22450;DHT22;11392;57.390;-2.468;2022-07-29T01:56:24;14.10;99.90
22450;DHT22;11392;57.390;-2.468;2022-07-29T01:58:57;14.10;99.90
22450;DHT22;11392;57.390;-2.468;2022-07-29T02:01:26;14.00;99.90
22450;DHT22;11392;57.390;-2.468;2022-07-29T02:03:55;14.00;99.90
22450;DHT22;11392;57.390;-2.468;2022-07-29T02:06:23;14.10;99.90
22450;DHT22;11392;57.390;-2.468;2022-07-29T02:08:51;14.10;99.90
22450;DHT22;11392;57.390;-2.468;2022-07-29T02:11:19;14.10;99.90
22450;DHT22;11392;57.390;-2.468;2022-07-29T02:13:46;14.10;99.90
22450;DHT22;11392;57.390;-2.468;2022-07-29T02:16:15;14.10;99.90
22450;DHT22;11392;57.390;-2.468;2022-07-29T02:18:45;14.10;99.90
22450;DHT22;11392;57.390;-2.468;2022-07-29T02:21:16;14.00;99.90
22450;DHT22;11392;57.390;-2.468;2022-07-29T02:23:46;14.00;99.90
22450;DHT22;11392;57.390;-2.468;2022-07-29T02:26:18;14.00;99.90
22450;DHT22;11392;57.390;-2.468;2022-07-29T02:28:49;14.00;99.90
22450;DHT22;11392;57.390;-2.468;2022-07-29T02:31:18;14.00;99.90
22450;DHT22;11392;57.390;-2.468;2022-07-29T02:33:48;14.00;99.90
22450;DHT22;11392;57.390;-2.468;2022-07-29T02:36:16;13.90;99.90
22450;DHT22;11392;57.390;-2.468;2022-07-29T02:38:44;14.00;99.90
22450;DHT22;11392;57.390;-2.468;2022-07-29T02:41:22;14.00;99.90
22450;DHT22;11392;57.390;-2.468;2022-07-29T02:43:54;13.90;99.90
22450;DHT22;11392;57.390;-2.468;2022-07-29T02:46:31;13.90;99.90
22450;DHT22;11392;57.390;-2.468;2022-07-29T02:49:07;13.90;99.90
22450;DHT22;11392;57.390;-2.468;2022-07-29T02:51:49;13.90;99.90
22450;DHT22;11392;57.390;-2.468;2022-07-29T02:57:01;13.90;99.90
22450;DHT22;11392;57.390;-2.468;2022-07-29T02:59:33;13.90;99.90
22450;DHT22;11392;57.390;-2.468;2022-07-29T03:02:02;13.80;99.90
22450;DHT22;11392;57.390;-2.468;2022-07-29T03:04:32;13.80;99.90
22450;DHT22;11392;57.390;-2.468;2022-07-29T03:07:02;13.80;99.90
22450;DHT22;11392;57.390;-2.468;2022-07-29T03:09:30;13.80;99.90
22450;DHT22;11392;57.390;-2.468;2022-07-29T03:11:58;13.80;99.90
22450;DHT22;11392;57.390;-2.468;2022-07-29T03:14:26;13.80;99.90
22450;DHT22;11392;57.390;-2.468;2022-07-29T03:16:54;13.80;99.90
22450;DHT22;11392;57.390;-2.468;2022-07-29T03:19:22;13.70;99.90
22450;DHT22;11392;57.390;-2.468;2022-07-29T03:21:49;13.70;99.90
22450;DHT22;11392;57.390;-2.468;2022-07-29T03:24:34;13.70;99.90
22450;DHT22;11392;57.390;-2.468;2022-07-29T03:27:02;13.60;99.90
22450;DHT22;11392;57.390;-2.468;2022-07-29T03:29:30;13.60;99.90
22450;DHT22;11392;57.390;-2.468;2022-07-29T03:32:03;13.60;99.90
22450;DHT22;11392;57.390;-2.468;2022-07-29T03:34:34;13.60;99.90
22450;DHT22;11392;57.390;-2.468;2022-07-29T03:37:01;13.60;99.90
22450;DHT22;11392;57.390;-2.468;2022-07-29T03:39:33;13.60;99.90
22450;DHT22;11392;57.390;-2.468;2022-07-29T03:42:01;13.50;99.90
22450;DHT22;11392;57.390;-2.468;2022-07-29T03:44:29;13.50;99.90
22450;DHT22;11392;57.390;-2.468;2022-07-29T03:46:59;13.50;99.90
22450;DHT22;11392;57.390;-2.468;2022-07-29T03:49:29;13.50;99.90
22450;DHT22;11392;57.390;-2.468;2022-07-29T03:51:57;13.50;99.90
22450;DHT22;11392;57.390;-2.468;2022-07-29T03:54:24;13.40;99.90
22450;DHT22;11392;57.390;-2.468;2022-07-29T03:56:53;13.50;99.90
22450;DHT22;11392;57.390;-2.468;2022-07-29T03:59:21;13.50;99.90
22450;DHT22;11392;57.390;-2.468;2022-07-29T04:01:50;13.50;99.90
22450;DHT22;11392;57.390;-2.468;2022-07-29T04:04:17;13.50;99.90
22450;DHT22;11392;57.390;-2.468;2022-07-29T04:06:46;13.40;99.90
22450;DHT22;11392;57.390;-2.468;2022-07-29T04:09:14;13.40;99.90
22450;DHT22;11392;57.390;-2.468;2022-07-29T04:11:42;13.40;99.90
22450;DHT22;11392;57.390;-2.468;2022-07-29T04:14:29;13.40;99.90
22450;DHT22;11392;57.390;-2.468;2022-07-29T04:16:56;13.40;99.90
22450;DHT22;11392;57.390;-2.468;2022-07-29T04:19:23;13.40;99.90
22450;DHT22;11392;57.390;-2.468;2022-07-29T04:21:50;13.40;99.90
22450;DHT22;11392;57.390;-2.468;2022-07-29T04:24:18;13.40;99.90
22450;DHT22;11392;57.390;-2.468;2022-07-29T04:26:46;13.40;99.90
22450;DHT22;11392;57.390;-2.468;2022-07-29T04:29:13;13.40;99.90
22450;DHT22;11392;57.390;-2.468;2022-07-29T04:31:41;13.40;99.90
22450;DHT22;11392;57.390;-2.468;2022-07-29T04:34:09;13.40;99.90
22450;DHT22;11392;57.390;-2.468;2022-07-29T04:36:36;13.40;99.90
22450;DHT22;11392;57.390;-2.468;2022-07-29T04:39:03;13.40;99.90
22450;DHT22;11392;57.390;-2.468;2022-07-29T04:41:31;13.40;99.90
22450;DHT22;11392;57.390;-2.468;2022-07-29T04:44:00;13.30;99.90
22450;DHT22;11392;57.390;-2.468;2022-07-29T04:46:33;13.30;99.90
22450;DHT22;11392;57.390;-2.468;2022-07-29T04:49:00;13.40;99.90
22450;DHT22;11392;57.390;-2.468;2022-07-29T04:51:27;13.40;99.90
22450;DHT22;11392;57.390;-2.468;2022-07-29T04:53:54;13.40;99.90
22450;DHT22;11392;57.390;-2.468;2022-07-29T04:56:21;13.40;99.90
22450;DHT22;11392;57.390;-2.468;2022-07-29T04:58:48;13.30;99.90
22450;DHT22;11392;57.390;-2.468;2022-07-29T05:01:15;13.30;99.90
22450;DHT22;11392;57.390;-2.468;2022-07-29T05:03:42;13.30;99.90
22450;DHT22;11392;57.390;-2.468;2022-07-29T05:06:09;13.30;99.90
22450;DHT22;11392;57.390;-2.468;2022-07-29T05:08:37;13.20;99.90
22450;DHT22;11392;57.390;-2.468;2022-07-29T05:11:07;13.30;99.90
22450;DHT22;11392;57.390;-2.468;2022-07-29T05:13:39;13.30;99.90
22450;DHT22;11392;57.390;-2.468;2022-07-29T05:16:13;13.30;99.90
22450;DHT22;11392;57.390;-2.468;2022-07-29T05:18:41;13.40;99.90
22450;DHT22;11392;57.390;-2.468;2022-07-29T05:21:08;13.40;99.90
22450;DHT22;11392;57.390;-2.468;2022-07-29T05:23:36;13.40;99.90
22450;DHT22;11392;57.390;-2.468;2022-07-29T05:26:03;13.50;99.90
22450;DHT22;11392;57.390;-2.468;2022-07-29T05:28:34;13.50;99.90
22450;DHT22;11392;57.390;-2.468;2022-07-29T05:31:01;13.50;99.90
22450;DHT22;11392;57.390;-2.468;2022-07-29T05:33:29;13.60;99.90
22450;DHT22;11392;57.390;-2.468;2022-07-29T05:36:03;13.50;99.90
22450;DHT22;11392;57.390;-2.468;2022-07-29T05:38:34;13.60;99.90
22450;DHT22;11392;57.390;-2.468;2022-07-29T05:41:02;13.60;99.90
22450;DHT22;11392;57.390;-2.468;2022-07-29T05:43:30;13.60;99.90
22450;DHT22;11392;57.390;-2.468;2022-07-29T05:45:57;13.60;99.90
22450;DHT22;11392;57.390;-2.468;2022-07-29T05:48:24;13.60;99.90
22450;DHT22;11392;57.390;-2.468;2022-07-29T05:50:52;13.60;99.90
22450;DHT22;11392;57.390;-2.468;2022-07-29T05:53:19;13.70;99.90
22450;DHT22;11392;57.390;-2.468;2022-07-29T05:55:50;13.70;99.90
22450;DHT22;11392;57.390;-2.468;2022-07-29T05:58:17;13.70;99.90
22450;DHT22;11392;57.390;-2.468;2022-07-29T06:00:44;13.70;99.90
22450;DHT22;11392;57.390;-2.468;2022-07-29T06:03:11;13.70;99.90
22450;DHT22;11392;57.390;-2.468;2022-07-29T06:05:39;13.70;99.90
22450;DHT22;11392;57.390;-2.468;2022-07-29T06:08:06;13.70;99.90
22450;DHT22;11392;57.390;-2.468;2022-07-29T06:10:37;13.80;99.90
22450;DHT22;11392;57.390;-2.468;2022-07-29T06:13:04;13.80;99.90
22450;DHT22;11392;57.390;-2.468;2022-07-29T06:15:31;13.80;99.90
22450;DHT22;11392;57.390;-2.468;2022-07-29T06:17:58;13.80;99.90
22450;DHT22;11392;57.390;-2.468;2022-07-29T06:20:28;13.90;99.90
22450;DHT22;11392;57.390;-2.468;2022-07-29T06:22:58;13.90;99.90
22450;DHT22;11392;57.390;-2.468;2022-07-29T06:25:25;14.00;99.90
22450;DHT22;11392;57.390;-2.468;2022-07-29T06:27:53;14.00;99.90
22450;DHT22;11392;57.390;-2.468;2022-07-29T06:30:20;14.10;99.90
22450;DHT22;11392;57.390;-2.468;2022-07-29T06:32:47;14.10;99.90
22450;DHT22;11392;57.390;-2.468;2022-07-29T06:35:14;14.10;99.90
22450;DHT22;11392;57.390;-2.468;2022-07-29T06:38:04;14.20;99.90
22450;DHT22;11392;57.390;-2.468;2022-07-29T06:40:51;14.20;99.90
22450;DHT22;11392;57.390;-2.468;2022-07-29T06:43:37;14.30;99.90
22450;DHT22;11392;57.390;-2.468;2022-07-29T06:46:18;14.30;99.90
22450;DHT22;11392;57.390;-2.468;2022-07-29T06:48:46;14.30;99.90
22450;DHT22;11392;57.390;-2.468;2022-07-29T06:51:14;14.40;99.90
22450;DHT22;11392;57.390;-2.468;2022-07-29T06:53:49;14.40;99.90
22450;DHT22;11392;57.390;-2.468;2022-07-29T06:56:32;14.40;99.90
22450;DHT22;11392;57.390;-2.468;2022-07-29T06:59:06;14.50;99.90
22450;DHT22;11392;57.390;-2.468;2022-07-29T07:01:34;14.50;99.90
22450;DHT22;11392;57.390;-2.468;2022-07-29T07:04:02;14.60;99.90
22450;DHT22;11392;57.390;-2.468;2022-07-29T07:06:29;14.60;99.90
22450;DHT22;11392;57.390;-2.468;2022-07-29T07:08:56;14.60;99.90
22450;DHT22;11392;57.390;-2.468;2022-07-29T07:11:23;14.70;99.90
22450;DHT22;11392;57.390;-2.468;2022-07-29T07:13:50;14.70;99.90
22450;DHT22;11392;57.390;-2.468;2022-07-29T07:16:17;14.70;99.90
22450;DHT22;11392;57.390;-2.468;2022-07-29T07:18:45;14.70;99.90
22450;DHT22;11392;57.390;-2.468;2022-07-29T07:21:12;14.70;99.90
22450;DHT22;11392;57.390;-2.468;2022-07-29T07:23:45;14.80;99.90
22450;DHT22;11392;57.390;-2.468;2022-07-29T07:26:13;14.80;99.90
22450;DHT22;11392;57.390;-2.468;2022-07-29T07:28:40;14.80;99.90
22450;DHT22;11392;57.390;-2.468;2022-07-29T07:31:07;14.90;99.90
22450;DHT22;11392;57.390;-2.468;2022-07-29T07:33:34;14.80;99.90
22450;DHT22;11392;57.390;-2.468;2022-07-29T07:36:01;14.90;99.90
22450;DHT22;11392;57.390;-2.468;2022-07-29T07:38:28;14.90;99.90
22450;DHT22;11392;57.390;-2.468;2022-07-29T07:40:55;15.00;99.90
22450;DHT22;11392;57.390;-2.468;2022-07-29T07:43:22;15.00;99.90
22450;DHT22;11392;57.390;-2.468;2022-07-29T07:45:49;15.00;99.90
22450;DHT22;11392;57.390;-2.468;2022-07-29T07:48:16;15.00;99.90
22450;DHT22;11392;57.390;-2.468;2022-07-29T07:50:44;15.10;99.90
22450;DHT22;11392;57.390;-2.468;2022-07-29T07:53:11;15.20;99.90
22450;DHT22;11392;57.390;-2.468;2022-07-29T07:55:42;15.30;99.90
22450;DHT22;11392;57.390;-2.468;2022-07-29T07:58:29;15.30;99.90
22450;DHT22;11392;57.390;-2.468;2022-07-29T08:00:56;15.40;99.90
22450;DHT22;11392;57.390;-2.468;2022-07-29T08:03:23;15.40;99.90
22450;DHT22;11392;57.390;-2.468;2022-07-29T08:05:50;15.50;99.90
22450;DHT22;11392;57.390;-2.468;2022-07-29T08:08:18;15.50;99.90
22450;DHT22;11392;57.390;-2.468;2022-07-29T08:10:45;15.60;99.90
22450;DHT22;11392;57.390;-2.468;2022-07-29T08:13:25;15.70;99.90
22450;DHT22;11392;57.390;-2.468;2022-07-29T08:15:55;15.70;99.90
22450;DHT22;11392;57.390;-2.468;2022-07-29T08:18:30;15.80;99.90
22450;DHT22;11392;57.390;-2.468;2022-07-29T08:20:58;15.90;99.90
22450;DHT22;11392;57.390;-2.468;2022-07-29T08:23:26;16.00;99.90
22450;DHT22;11392;57.390;-2.468;2022-07-29T08:26:12;16.00;99.90
22450;DHT22;11392;57.390;-2.468;2022-07-29T08:28:41;16.10;99.90
22450;DHT22;11392;57.390;-2.468;2022-07-29T08:31:13;16.20;99.90
22450;DHT22;11392;57.390;-2.468;2022-07-29T08:33:40;16.40;99.90
22450;DHT22;11392;57.390;-2.468;2022-07-29T08:36:07;16.40;99.90
22450;DHT22;11392;57.390;-2.468;2022-07-29T08:38:34;16.50;99.90
22450;DHT22;11392;57.390;-2.468;2022-07-29T08:41:02;16.70;99.90
22450;DHT22;11392;57.390;-2.468;2022-07-29T08:43:29;16.80;99.90
22450;DHT22;11392;57.390;-2.468;2022-07-29T08:45:56;17.00;99.90
22450;DHT22;11392;57.390;-2.468;2022-07-29T08:48:23;17.10;99.90
22450;DHT22;11392;57.390;-2.468;2022-07-29T08:50:55;17.30;99.90
22450;DHT22;11392;57.390;-2.468;2022-07-29T08:53:25;17.30;99.90
22450;DHT22;11392;57.390;-2.468;2022-07-29T08:55:53;17.40;99.90
22450;DHT22;11392;57.390;-2.468;2022-07-29T08:58:21;17.40;99.90
22450;DHT22;11392;57.390;-2.468;2022-07-29T09:00:55;17.40;99.90
22450;DHT22;11392;57.390;-2.468;2022-07-29T09:03:25;17.40;99.90
22450;DHT22;11392;57.390;-2.468;2022-07-29T09:05:54;17.40;99.90
22450;DHT22;11392;57.390;-2.468;2022-07-29T09:08:21;17.60;99.90
22450;DHT22;11392;57.390;-2.468;2022-07-29T09:10:48;17.60;99.90
22450;DHT22;11392;57.390;-2.468;2022-07-29T09:13:16;17.70;99.90
22450;DHT22;11392;57.390;-2.468;2022-07-29T09:15:43;17.80;99.90
22450;DHT22;11392;57.390;-2.468;2022-07-29T09:18:10;18.00;99.90
22450;DHT22;11392;57.390;-2.468;2022-07-29T09:20:56;18.20;99.90
22450;DHT22;11392;57.390;-2.468;2022-07-29T09:24:00;18.40;99.90
22450;DHT22;11392;57.390;-2.468;2022-07-29T09:26:31;18.60;99.90
22450;DHT22;11392;57.390;-2.468;2022-07-29T09:28:59;18.70;99.90
22450;DHT22;11392;57.390;-2.468;2022-07-29T09:31:34;18.90;99.90
22450;DHT22;11392;57.390;-2.468;2022-07-29T09:34:02;19.30;99.90
22450;DHT22;11392;57.390;-2.468;2022-07-29T09:36:29;19.50;99.90
22450;DHT22;11392;57.390;-2.468;2022-07-29T09:39:00;19.80;99.90
22450;DHT22;11392;57.390;-2.468;2022-07-29T09:41:29;20.10;99.90
22450;DHT22;11392;57.390;-2.468;2022-07-29T09:43:57;20.30;99.90
22450;DHT22;11392;57.390;-2.468;2022-07-29T09:46:27;20.30;99.90
22450;DHT22;11392;57.390;-2.468;2022-07-29T09:49:13;20.20;99.90
22450;DHT22;11392;57.390;-2.468;2022-07-29T09:51:40;20.10;99.90
22450;DHT22;11392;57.390;-2.468;2022-07-29T09:54:24;19.80;99.90
22450;DHT22;11392;57.390;-2.468;2022-07-29T09:56:53;19.80;99.90
22450;DHT22;11392;57.390;-2.468;2022-07-29T09:59:21;19.80;99.90
22450;DHT22;11392;57.390;-2.468;2022-07-29T10:01:51;19.90;99.90
22450;DHT22;11392;57.390;-2.468;2022-07-29T10:04:19;19.90;99.90
22450;DHT22;11392;57.390;-2.468;2022-07-29T10:07:00;20.20;99.90
22450;DHT22;11392;57.390;-2.468;2022-07-29T10:09:31;20.20;99.90
22450;DHT22;11392;57.390;-2.468;2022-07-29T10:12:11;20.30;99.90
22450;DHT22;11392;57.390;-2.468;2022-07-29T10:14:41;20.40;99.90
22450;DHT22;11392;57.390;-2.468;2022-07-29T10:17:09;20.60;99.90
22450;DHT22;11392;57.390;-2.468;2022-07-29T10:19:37;20.80;99.90
22450;DHT22;11392;57.390;-2.468;2022-07-29T10:22:07;21.10;99.90
22450;DHT22;11392;57.390;-2.468;2022-07-29T10:24:36;21.40;99.90
22450;DHT22;11392;57.390;-2.468;2022-07-29T10:27:06;21.60;99.90
22450;DHT22;11392;57.390;-2.468;2022-07-29T10:29:34;21.70;99.90
22450;DHT22;11392;57.390;-2.468;2022-07-29T10:32:23;21.80;99.90
22450;DHT22;11392;57.390;-2.468;2022-07-29T10:35:17;21.70;99.90
22450;DHT22;11392;57.390;-2.468;2022-07-29T10:43:40;21.60;99.90
22450;DHT22;11392;57.390;-2.468;2022-07-29T10:46:09;22.00;99.90
22450;DHT22;11392;57.390;-2.468;2022-07-29T10:49:09;22.10;99.90
22450;DHT22;11392;57.390;-2.468;2022-07-29T10:54:36;21.90;99.90
22450;DHT22;11392;57.390;-2.468;2022-07-29T11:03:00;21.70;99.90
22450;DHT22;11392;57.390;-2.468;2022-07-29T11:05:55;21.60;99.90
22450;DHT22;11392;57.390;-2.468;2022-07-29T11:08:25;21.40;99.90
22450;DHT22;11392;57.390;-2.468;2022-07-29T11:13:50;22.10;99.90
22450;DHT22;11392;57.390;-2.468;2022-07-29T11:16:20;21.80;99.90
22450;DHT22;11392;57.390;-2.468;2022-07-29T11:21:43;21.90;99.90
22450;DHT22;11392;57.390;-2.468;2022-07-29T11:24:29;22.20;99.90
22450;DHT22;11392;57.390;-2.468;2022-07-29T11:27:09;22.60;99.90
22450;DHT22;11392;57.390;-2.468;2022-07-29T11:29:56;22.80;99.90
22450;DHT22;11392;57.390;-2.468;2022-07-29T11:32:41;23.20;99.90
22450;DHT22;11392;57.390;-2.468;2022-07-29T11:35:22;23.30;99.90
22450;DHT22;11392;57.390;-2.468;2022-07-29T11:38:24;23.00;99.90
22450;DHT22;11392;57.390;-2.468;2022-07-29T11:41:26;22.90;99.90
22450;DHT22;11392;57.390;-2.468;2022-07-29T11:43:59;23.20;99.90
22450;DHT22;11392;57.390;-2.468;2022-07-29T11:46:50;23.40;99.90
22450;DHT22;11392;57.390;-2.468;2022-07-29T11:49:28;22.90;99.90
22450;DHT22;11392;57.390;-2.468;2022-07-29T11:51:59;22.60;99.90
22450;DHT22;11392;57.390;-2.468;2022-07-29T11:54:34;22.50;99.90
22450;DHT22;11392;57.390;-2.468;2022-07-29T11:57:21;22.30;99.90
22450;DHT22;11392;57.390;-2.468;2022-07-29T12:00:05;22.30;99.90
22450;DHT22;11392;57.390;-2.468;2022-07-29T12:02:40;22.60;99.90
22450;DHT22;11392;57.390;-2.468;2022-07-29T12:05:10;22.70;99.90
22450;DHT22;11392;57.390;-2.468;2022-07-29T12:07:38;22.40;99.90
22450;DHT22;11392;57.390;-2.468;2022-07-29T12:10:11;22.20;99.90
22450;DHT22;11392;57.390;-2.468;2022-07-29T12:12:56;22.20;99.90
22450;DHT22;11392;57.390;-2.468;2022-07-29T12:15:24;22.90;99.90
22450;DHT22;11392;57.390;-2.468;2022-07-29T12:18:14;23.10;99.90
22450;DHT22;11392;57.390;-2.468;2022-07-29T12:20:44;23.60;99.90
22450;DHT22;11392;57.390;-2.468;2022-07-29T12:23:12;24.00;99.90
22450;DHT22;11392;57.390;-2.468;2022-07-29T12:25:42;23.60;99.90
22450;DHT22;11392;57.390;-2.468;2022-07-29T12:28:15;23.40;99.90
22450;DHT22;11392;57.390;-2.468;2022-07-29T12:30:53;23.50;99.90
22450;DHT22;11392;57.390;-2.468;2022-07-29T12:33:21;24.00;99.90
22450;DHT22;11392;57.390;-2.468;2022-07-29T12:35:55;24.20;99.90
22450;DHT22;11392;57.390;-2.468;2022-07-29T12:38:33;24.40;99.90
22450;DHT22;11392;57.390;-2.468;2022-07-29T12:41:02;24.80;99.90
22450;DHT22;11392;57.390;-2.468;2022-07-29T12:43:30;24.90;99.90
22450;DHT22;11392;57.390;-2.468;2022-07-29T12:46:10;24.50;99.90
22450;DHT22;11392;57.390;-2.468;2022-07-29T12:48:40;24.20;99.90
22450;DHT22;11392;57.390;-2.468;2022-07-29T12:51:08;24.00;99.90
22450;DHT22;11392;57.390;-2.468;2022-07-29T12:53:36;24.10;99.90
22450;DHT22;11392;57.390;-2.468;2022-07-29T12:56:04;23.60;99.90
22450;DHT22;11392;57.390;-2.468;2022-07-29T12:58:46;23.70;99.90
22450;DHT22;11392;57.390;-2.468;2022-07-29T13:01:17;23.70;99.90
22450;DHT22;11392;57.390;-2.468;2022-07-29T13:03:58;23.50;99.90
22450;DHT22;11392;57.390;-2.468;2022-07-29T13:09:38;23.80;99.90
22450;DHT22;11392;57.390;-2.468;2022-07-29T13:12:10;24.10;99.90
22450;DHT22;11392;57.390;-2.468;2022-07-29T13:14:46;24.30;99.90
22450;DHT22;11392;57.390;-2.468;2022-07-29T13:17:22;24.50;99.90
22450;DHT22;11392;57.390;-2.468;2022-07-29T13:20:10;24.90;99.90
22450;DHT22;11392;57.390;-2.468;2022-07-29T13:22:41;25.00;99.90
22450;DHT22;11392;57.390;-2.468;2022-07-29T13:25:11;25.10;99.90
22450;DHT22;11392;57.390;-2.468;2022-07-29T13:27:39;25.20;99.90
22450;DHT22;11392;57.390;-2.468;2022-07-29T13:30:11;25.00;99.90
22450;DHT22;11392;57.390;-2.468;2022-07-29T13:32:38;24.90;99.90
22450;DHT22;11392;57.390;-2.468;2022-07-29T13:35:07;24.40;99.90
22450;DHT22;11392;57.390;-2.468;2022-07-29T13:37:36;23.80;99.90
22450;DHT22;11392;57.390;-2.468;2022-07-29T13:40:07;23.60;99.90
22450;DHT22;11392;57.390;-2.468;2022-07-29T13:42:34;23.70;99.90
22450;DHT22;11392;57.390;-2.468;2022-07-29T13:45:03;23.70;99.90
22450;DHT22;11392;57.390;-2.468;2022-07-29T13:47:31;23.90;99.90
22450;DHT22;11392;57.390;-2.468;2022-07-29T13:50:03;23.90;99.90
22450;DHT22;11392;57.390;-2.468;2022-07-29T13:52:32;23.50;99.90
22450;DHT22;11392;57.390;-2.468;2022-07-29T13:55:00;23.20;99.90
22450;DHT22;11392;57.390;-2.468;2022-07-29T13:57:28;23.00;99.90
22450;DHT22;11392;57.390;-2.468;2022-07-29T13:59:56;23.20;99.90
22450;DHT22;11392;57.390;-2.468;2022-07-29T14:02:23;23.50;99.90
22450;DHT22;11392;57.390;-2.468;2022-07-29T14:04:53;23.30;99.90
22450;DHT22;11392;57.390;-2.468;2022-07-29T14:07:21;23.10;99.90
22450;DHT22;11392;57.390;-2.468;2022-07-29T14:09:48;23.00;99.90
22450;DHT22;11392;57.390;-2.468;2022-07-29T14:12:15;23.30;99.90
22450;DHT22;11392;57.390;-2.468;2022-07-29T14:14:43;23.40;99.90
22450;DHT22;11392;57.390;-2.468;2022-07-29T14:17:13;23.50;99.90
22450;DHT22;11392;57.390;-2.468;2022-07-29T14:19:40;23.80;99.90
22450;DHT22;11392;57.390;-2.468;2022-07-29T14:22:08;24.10;99.90
22450;DHT22;11392;57.390;-2.468;2022-07-29T14:24:37;24.30;99.90
22450;DHT22;11392;57.390;-2.468;2022-07-29T14:27:07;24.40;99.90
22450;DHT22;11392;57.390;-2.468;2022-07-29T14:29:35;24.70;99.90
22450;DHT22;11392;57.390;-2.468;2022-07-29T14:32:08;24.40;99.90
22450;DHT22;11392;57.390;-2.468;2022-07-29T14:34:36;24.60;99.90
22450;DHT22;11392;57.390;-2.468;2022-07-29T14:37:04;24.70;99.90
22450;DHT22;11392;57.390;-2.468;2022-07-29T14:39:42;23.90;99.90
22450;DHT22;11392;57.390;-2.468;2022-07-29T14:42:10;24.00;99.90
22450;DHT22;11392;57.390;-2.468;2022-07-29T14:44:39;24.10;99.90
22450;DHT22;11392;57.390;-2.468;2022-07-29T14:47:08;24.20;99.90
22450;DHT22;11392;57.390;-2.468;2022-07-29T14:49:35;24.00;99.90
22450;DHT22;11392;57.390;-2.468;2022-07-29T14:52:03;23.90;99.90
22450;DHT22;11392;57.390;-2.468;2022-07-29T14:54:30;23.90;99.90
22450;DHT22;11392;57.390;-2.468;2022-07-29T14:56:57;23.60;99.90
22450;DHT22;11392;57.390;-2.468;2022-07-29T14:59:25;23.60;99.90
22450;DHT22;11392;57.390;-2.468;2022-07-29T15:01:52;23.70;99.90
22450;DHT22;11392;57.390;-2.468;2022-07-29T15:04:20;23.80;99.90
22450;DHT22;11392;57.390;-2.468;2022-07-29T15:06:47;23.80;99.90
22450;DHT22;11392;57.390;-2.468;2022-07-29T15:09:14;23.90;99.90
22450;DHT22;11392;57.390;-2.468;2022-07-29T15:11:41;23.90;99.90
22450;DHT22;11392;57.390;-2.468;2022-07-29T15:14:08;24.00;99.90
22450;DHT22;11392;57.390;-2.468;2022-07-29T15:16:36;23.80;99.90
22450;DHT22;11392;57.390;-2.468;2022-07-29T15:19:04;23.80;99.90
22450;DHT22;11392;57.390;-2.468;2022-07-29T15:21:31;23.90;99.90
22450;DHT22;11392;57.390;-2.468;2022-07-29T15:23:58;23.80;99.90
22450;DHT22;11392;57.390;-2.468;2022-07-29T15:26:25;23.60;99.90
22450;DHT22;11392;57.390;-2.468;2022-07-29T15:28:52;23.50;99.90
22450;DHT22;11392;57.390;-2.468;2022-07-29T15:31:19;23.20;99.90
22450;DHT22;11392;57.390;-2.468;2022-07-29T15:33:47;23.00;99.90
22450;DHT22;11392;57.390;-2.468;2022-07-29T15:36:14;22.80;99.90
22450;DHT22;11392;57.390;-2.468;2022-07-29T15:39:01;22.90;99.90
22450;DHT22;11392;57.390;-2.468;2022-07-29T15:41:28;22.90;99.90
22450;DHT22;11392;57.390;-2.468;2022-07-29T15:43:56;22.80;99.90
22450;DHT22;11392;57.390;-2.468;2022-07-29T15:46:23;22.70;99.90
22450;DHT22;11392;57.390;-2.468;2022-07-29T15:49:08;22.50;99.90
22450;DHT22;11392;57.390;-2.468;2022-07-29T15:51:35;22.20;99.90
22450;DHT22;11392;57.390;-2.468;2022-07-29T15:54:03;22.10;99.90
22450;DHT22;11392;57.390;-2.468;2022-07-29T15:56:31;22.10;99.90
22450;DHT22;11392;57.390;-2.468;2022-07-29T15:58:58;22.10;99.90
22450;DHT22;11392;57.390;-2.468;2022-07-29T16:01:26;22.20;99.90
22450;DHT22;11392;57.390;-2.468;2022-07-29T16:03:53;22.30;99.90
22450;DHT22;11392;57.390;-2.468;2022-07-29T16:06:21;22.40;99.90
22450;DHT22;11392;57.390;-2.468;2022-07-29T16:08:48;22.20;99.90
22450;DHT22;11392;57.390;-2.468;2022-07-29T16:11:15;22.20;99.90
22450;DHT22;11392;57.390;-2.468;2022-07-29T16:13:42;22.20;99.90